Terminal Aerodrome Forecast
Issued by NWS

Home | Current Version | Previous Version | Text Only | Print | Product List | Glossary On
Versions: 1 2 3 4 5 6 7 8 9 10 11 12 13 14 15 16 17 18 19 20 21 22 23
077
FTUS43 KGRB 230520
TAFCWA
TAF
KCWA 230520Z 2306/2406 30008KT P6SM FEW050
     FM231600 32008KT P6SM SCT035
      TEMPO 2316/2320 BKN035
     FM240000 36004KT P6SM SCT040
      AMD LTD TO CLD VIS AND WIND TIL 231100=

USA.gov is the U.S. government's official web portal to all federal, state and local government web resources and services.